Time;durP1;ratioP1;P1;durP2;ratioP2;P2;SDS_P1;SDS_P2;PMS_P1;PMS_P2;Temp;Humidity;BMP_temperature;BMP_pressure;BME280_temperature;BME280_humidity;BME280_pressure;Samples;Min_cycle;Max_cycle;Signal;HPM_P1;HPM_P2
2024/05/03 00:01:12;;;;;;;9.37;8.17;;;14.50;99.90;;;;;;6579393;21;20239;-88
2024/05/03 00:03:41;;;;;;;9.93;8.30;;;14.50;99.90;;;;;;6579702;21;20253;-87
2024/05/03 00:06:09;;;;;;;10.57;9.47;;;14.50;99.90;;;;;;6579797;21;20318;-84
2024/05/03 00:08:40;;;;;;;10.63;9.53;;;14.50;99.90;;;;;;6581186;21;20362;-86
2024/05/03 00:11:09;;;;;;;10.50;9.40;;;14.60;99.90;;;;;;6579902;21;20261;-86
2024/05/03 00:13:37;;;;;;;10.67;9.43;;;14.60;99.90;;;;;;6581748;21;20214;-87
2024/05/03 00:16:06;;;;;;;11.17;10.07;;;14.30;99.90;;;;;;6581565;21;20215;-86
2024/05/03 00:18:35;;;;;;;10.77;9.67;;;14.30;99.90;;;;;;6579651;21;20254;-86
2024/05/03 00:21:03;;;;;;;11.73;10.53;;;14.30;99.90;;;;;;6579692;21;20231;-85
2024/05/03 00:23:32;;;;;;;12.70;11.40;;;14.40;99.90;;;;;;6581195;21;20256;-87
2024/05/03 00:26:03;;;;;;;13.40;11.13;;;14.30;99.90;;;;;;6581947;21;20261;-86
2024/05/03 00:28:32;;;;;;;11.87;10.53;;;14.30;99.90;;;;;;6583837;21;20266;-89
2024/05/03 00:31:00;;;;;;;11.97;10.77;;;14.20;99.90;;;;;;6581745;21;20260;-89
2024/05/03 00:33:29;;;;;;;14.80;11.50;;;14.30;99.90;;;;;;6581836;21;20231;-89
2024/05/03 00:35:57;;;;;;;12.97;10.97;;;14.20;99.90;;;;;;6581807;21;20242;-89
2024/05/03 00:38:26;;;;;;;12.20;10.90;;;14.30;99.90;;;;;;6583597;21;20215;-89
2024/05/03 00:40:54;;;;;;;13.33;11.07;;;14.40;99.90;;;;;;6581520;21;20223;-88
2024/05/03 00:43:26;;;;;;;12.97;11.57;;;14.20;99.90;;;;;;6581458;21;20282;-87
2024/05/03 00:45:56;;;;;;;14.80;12.23;;;14.30;99.90;;;;;;6583611;21;20318;-86
2024/05/03 00:48:26;;;;;;;15.17;11.57;;;14.30;99.90;;;;;;6583545;21;20215;-88
2024/05/03 00:50:55;;;;;;;14.03;12.03;;;14.30;99.90;;;;;;6584049;21;20258;-87
2024/05/03 00:53:24;;;;;;;14.27;12.63;;;14.30;99.90;;;;;;6581495;21;20273;-88
2024/05/03 00:55:53;;;;;;;15.57;13.90;;;14.30;99.90;;;;;;6581335;21;20278;-89
2024/05/03 00:58:22;;;;;;;15.43;13.63;;;14.30;99.90;;;;;;6583480;21;20265;-88
2024/05/03 01:00:53;;;;;;;16.53;14.17;;;14.20;99.90;;;;;;6581078;21;20289;-88
2024/05/03 01:03:21;;;;;;;16.97;14.57;;;14.20;99.90;;;;;;6581322;21;20231;-87
2024/05/03 01:05:50;;;;;;;17.90;14.13;;;14.10;99.90;;;;;;6581514;21;20226;-88
2024/05/03 01:08:19;;;;;;;16.23;13.83;;;14.00;99.90;;;;;;6581065;21;20226;-88
2024/05/03 01:10:49;;;;;;;15.33;13.20;;;14.00;99.90;;;;;;6581715;21;20286;-88
2024/05/03 01:13:17;;;;;;;15.77;13.40;;;13.90;99.90;;;;;;6581161;21;20231;-87
2024/05/03 01:15:46;;;;;;;13.57;12.13;;;14.00;99.90;;;;;;6581342;21;20231;-88
2024/05/03 01:18:17;;;;;;;13.73;12.23;;;13.80;99.90;;;;;;6581346;21;20223;-87
2024/05/03 01:20:46;;;;;;;12.77;10.90;;;14.00;99.90;;;;;;6581166;21;20231;-87
2024/05/03 01:23:16;;;;;;;12.97;11.17;;;13.80;99.90;;;;;;6583098;21;20219;-88
2024/05/03 01:25:47;;;;;;;11.53;10.23;;;13.70;99.90;;;;;;6581188;21;20235;-88
2024/05/03 01:28:16;;;;;;;10.60;9.20;;;13.70;99.90;;;;;;6580826;21;20269;-88
2024/05/03 01:30:45;;;;;;;8.70;7.80;;;13.70;99.90;;;;;;6581019;21;20261;-88
2024/05/03 01:33:13;;;;;;;6.07;5.40;;;13.60;99.90;;;;;;6580888;21;20222;-87
2024/05/03 01:35:43;;;;;;;7.00;6.40;;;13.50;99.90;;;;;;6580784;21;20269;-87
2024/05/03 01:38:12;;;;;;;5.60;4.87;;;13.60;99.90;;;;;;6583289;21;20332;-87
2024/05/03 01:40:40;;;;;;;7.47;3.90;;;13.60;99.90;;;;;;6580957;21;20273;-86
2024/05/03 01:43:11;;;;;;;4.60;3.70;;;13.30;99.90;;;;;;6583067;21;20266;-86
2024/05/03 01:45:40;;;;;;;5.47;4.07;;;13.10;99.90;;;;;;6581103;21;20349;-87
2024/05/03 01:48:09;;;;;;;3.30;3.00;;;13.10;99.90;;;;;;6580800;21;20332;-87
2024/05/03 01:50:38;;;;;;;5.37;3.70;;;13.00;99.90;;;;;;6582659;21;20342;-86
2024/05/03 01:53:07;;;;;;;4.40;3.63;;;13.10;99.90;;;;;;6580828;21;20226;-87
2024/05/03 01:55:36;;;;;;;3.83;3.43;;;13.00;99.90;;;;;;6580607;21;20248;-86
2024/05/03 01:58:05;;;;;;;5.13;3.90;;;13.00;99.90;;;;;;6580645;21;20269;-86
2024/05/03 02:00:38;;;;;;;4.60;3.67;;;12.90;99.90;;;;;;6580179;21;20239;-85
2024/05/03 02:03:07;;;;;;;5.80;3.90;;;13.00;99.90;;;;;;6582342;21;20226;-85
2024/05/03 02:05:35;;;;;;;7.27;4.23;;;12.90;99.90;;;;;;6582613;21;20215;-86
2024/05/03 02:08:04;;;;;;;4.47;3.67;;;13.00;99.90;;;;;;6580718;21;20226;-86
2024/05/03 02:10:32;;;;;;;6.67;3.63;;;12.70;99.90;;;;;;6582951;21;20258;-84
2024/05/03 02:13:01;;;;;;;5.80;4.90;;;12.70;99.90;;;;;;6582676;21;20215;-84
2024/05/03 02:15:29;;;;;;;9.50;5.40;;;12.70;99.90;;;;;;6582610;21;20221;-83
2024/05/03 02:18:01;;;;;;;7.10;6.37;;;12.70;99.90;;;;;;6580515;21;20227;-83
2024/05/03 02:20:29;;;;;;;8.37;6.50;;;12.70;99.90;;;;;;6580591;21;20223;-84
2024/05/03 02:22:58;;;;;;;8.07;6.60;;;13.30;99.90;;;;;;6580463;21;20223;-84
2024/05/03 02:25:26;;;;;;;10.90;8.03;;;12.60;99.90;;;;;;6582511;21;20219;-84
2024/05/03 02:27:54;;;;;;;8.73;7.67;;;12.70;99.90;;;;;;6582658;21;20220;-84
2024/05/03 02:30:23;;;;;;;12.60;8.33;;;12.80;99.90;;;;;;6582612;21;20257;-85
2024/05/03 02:32:51;;;;;;;10.57;7.87;;;12.50;99.90;;;;;;6580257;21;20226;-84
2024/05/03 02:35:22;;;;;;;11.43;8.43;;;12.40;99.90;;;;;;6580549;21;20230;-84
2024/05/03 02:37:51;;;;;;;11.73;9.00;;;12.70;99.90;;;;;;6582282;21;20349;-84
2024/05/03 02:40:20;;;;;;;12.37;9.03;;;12.40;99.90;;;;;;6582484;21;20266;-85
2024/05/03 02:42:48;;;;;;;12.43;9.30;;;12.40;99.90;;;;;;6580244;21;20231;-85
2024/05/03 02:45:17;;;;;;;12.20;9.57;;;12.40;99.90;;;;;;6581866;21;20233;-85
2024/05/03 02:47:45;;;;;;;13.90;9.70;;;12.30;99.90;;;;;;6581938;21;20218;-86
2024/05/03 02:50:14;;;;;;;12.93;8.53;;;12.70;99.90;;;;;;6582422;21;20215;-86
2024/05/03 02:52:45;;;;;;;10.30;8.37;;;12.20;99.90;;;;;;6580205;21;20227;-84
2024/05/03 02:55:13;;;;;;;12.17;8.13;;;12.20;99.90;;;;;;6582999;21;20264;-86
2024/05/03 02:57:42;;;;;;;12.03;8.70;;;12.10;99.90;;;;;;6582342;21;20215;-86
2024/05/03 03:00:12;;;;;;;11.40;8.00;;;12.10;99.90;;;;;;6576349;21;20275;-84
2024/05/03 03:02:42;;;;;;;9.07;7.33;;;12.10;99.90;;;;;;6485228;22;20307;-86
2024/05/03 03:05:11;;;;;;;10.47;7.80;;;12.10;99.90;;;;;;6485153;22;20227;-84
2024/05/03 03:07:39;;;;;;;10.13;7.90;;;12.10;99.90;;;;;;6529976;22;20254;-84
2024/05/03 03:10:12;;;;;;;9.07;7.30;;;12.10;99.90;;;;;;6484897;22;20224;-85
2024/05/03 03:12:41;;;;;;;8.10;6.40;;;12.10;99.90;;;;;;6484714;22;20228;-86
2024/05/03 03:15:10;;;;;;;9.93;7.00;;;12.00;99.90;;;;;;6484734;22;20232;-84
2024/05/03 03:17:38;;;;;;;8.10;6.30;;;12.00;99.90;;;;;;6529785;22;20354;-84
2024/05/03 03:20:08;;;;;;;7.03;5.70;;;12.00;99.90;;;;;;6529853;22;20267;-85
2024/05/03 03:22:36;;;;;;;9.53;5.90;;;12.00;99.90;;;;;;6484511;22;20242;-87
2024/05/03 03:25:05;;;;;;;10.03;5.50;;;12.00;99.90;;;;;;6529743;22;20218;-85
2024/05/03 03:27:39;;;;;;;8.27;6.00;;;11.90;99.90;;;;;;6484830;22;20264;-84
2024/05/03 03:30:09;;;;;;;6.70;5.57;;;11.90;99.90;;;;;;6484985;22;20231;-85
2024/05/03 03:32:38;;;;;;;8.13;5.60;;;11.90;99.90;;;;;;6484481;22;20233;-84
2024/05/03 03:35:07;;;;;;;6.93;5.63;;;12.00;99.90;;;;;;6484984;22;20228;-85
2024/05/03 03:37:35;;;;;;;6.50;5.40;;;11.90;99.90;;;;;;6484940;22;20223;-84
2024/05/03 03:40:04;;;;;;;7.07;5.53;;;11.90;99.90;;;;;;6485076;22;20262;-84
2024/05/03 03:42:33;;;;;;;5.53;4.83;;;11.90;99.90;;;;;;6484595;22;20266;-86
2024/05/03 03:45:05;;;;;;;5.73;4.67;;;11.90;99.90;;;;;;6529630;22;20268;-86
2024/05/03 03:47:34;;;;;;;5.63;4.50;;;11.80;99.90;;;;;;6485034;22;20297;-86
2024/05/03 03:50:04;;;;;;;6.00;4.63;;;11.80;99.90;;;;;;6529577;22;20249;-86
2024/05/03 03:52:34;;;;;;;4.60;3.97;;;11.90;99.90;;;;;;6529497;22;20274;-86
2024/05/03 03:55:02;;;;;;;4.00;3.60;;;11.90;99.90;;;;;;6529573;22;20223;-87
2024/05/03 03:57:31;;;;;;;3.33;3.03;;;11.80;99.90;;;;;;6486754;22;20305;-87
2024/05/03 03:59:59;;;;;;;3.77;3.00;;;11.80;99.90;;;;;;6485879;21;20228;-86
2024/05/03 04:02:30;;;;;;;2.90;2.60;;;11.80;99.90;;;;;;6486985;22;20228;-86
2024/05/03 04:04:59;;;;;;;2.40;2.20;;;11.80;99.90;;;;;;6532018;22;20217;-85
2024/05/03 04:07:28;;;;;;;2.00;1.80;;;11.80;99.90;;;;;;6531634;22;20266;-85
2024/05/03 04:09:57;;;;;;;2.27;2.00;;;11.80;99.90;;;;;;6486770;22;20245;-86
2024/05/03 04:12:25;;;;;;;1.40;1.30;;;11.90;99.90;;;;;;6486824;22;20266;-85
2024/05/03 04:14:54;;;;;;;1.40;1.30;;;11.80;99.90;;;;;;6531752;22;20218;-86
2024/05/03 04:17:22;;;;;;;1.10;1.00;;;11.80;99.90;;;;;;6530531;22;20227;-86
2024/05/03 04:19:53;;;;;;;1.40;1.30;;;11.90;99.90;;;;;;6486489;22;20254;-86
2024/05/03 04:22:22;;;;;;;1.30;1.20;;;11.90;99.90;;;;;;6531526;22;20223;-86
2024/05/03 04:24:51;;;;;;;1.30;1.20;;;11.80;99.90;;;;;;6531218;22;20257;-86
2024/05/03 04:27:19;;;;;;;1.60;1.20;;;11.80;99.90;;;;;;6486328;22;20224;-86
2024/05/03 04:29:48;;;;;;;1.30;1.20;;;11.90;99.90;;;;;;6531573;22;20266;-86
2024/05/03 04:32:16;;;;;;;1.20;1.10;;;11.90;99.90;;;;;;6486487;22;20228;-86
2024/05/03 04:34:45;;;;;;;1.20;1.10;;;12.00;99.90;;;;;;6486219;22;20228;-87
2024/05/03 04:37:16;;;;;;;1.20;1.10;;;12.00;99.90;;;;;;6486261;22;20274;-87
2024/05/03 04:39:47;;;;;;;1.20;1.10;;;12.00;99.90;;;;;;6486583;22;20251;-86
2024/05/03 04:42:15;;;;;;;1.10;0.90;;;12.10;99.90;;;;;;6486370;22;20317;-86
2024/05/03 04:44:46;;;;;;;1.07;1.00;;;12.00;99.90;;;;;;6531738;22;20216;-85
2024/05/03 04:47:16;;;;;;;1.53;1.40;;;12.00;99.90;;;;;;6486495;22;20294;-85
2024/05/03 04:49:44;;;;;;;1.20;1.10;;;12.00;99.90;;;;;;6486040;22;20239;-84
2024/05/03 04:52:16;;;;;;;1.30;1.20;;;12.30;99.90;;;;;;6531055;22;20258;-85
2024/05/03 04:54:45;;;;;;;1.20;1.10;;;12.10;99.90;;;;;;6486495;22;20219;-85
2024/05/03 04:57:16;;;;;;;1.13;1.10;;;12.10;99.90;;;;;;6486064;22;20287;-86
2024/05/03 04:59:44;;;;;;;1.17;1.10;;;12.10;99.90;;;;;;6486409;22;20270;-86
2024/05/03 05:02:13;;;;;;;1.00;1.00;;;12.10;99.90;;;;;;6575118;21;20280;-86
2024/05/03 05:04:42;;;;;;;0.80;0.80;;;12.20;99.90;;;;;;6581513;21;20235;-85
2024/05/03 05:07:11;;;;;;;1.27;1.00;;;12.30;99.90;;;;;;6583564;21;20218;-85
2024/05/03 05:09:44;;;;;;;1.07;0.70;;;12.50;99.90;;;;;;6581219;21;20230;-85
2024/05/03 05:12:13;;;;;;;0.73;0.73;;;12.20;99.90;;;;;;6581491;21;20223;-85
2024/05/03 05:14:42;;;;;;;0.60;0.60;;;12.40;99.90;;;;;;6581157;21;20265;-85
2024/05/03 05:17:11;;;;;;;0.57;0.50;;;12.20;99.90;;;;;;6581108;21;20293;-85
2024/05/03 05:19:41;;;;;;;0.70;0.67;;;12.20;99.90;;;;;;6581115;21;20261;-85
2024/05/03 05:22:07;;;;;;;0.97;0.63;;;12.30;99.90;;;;;;6582920;21;20223;-85
2024/05/03 05:24:36;;;;;;;0.70;0.70;;;12.30;99.90;;;;;;6583034;21;20270;-85
2024/05/03 05:27:09;;;;;;;1.17;0.70;;;12.50;99.90;;;;;;6583001;21;20215;-84
2024/05/03 05:29:39;;;;;;;0.60;0.60;;;12.30;99.90;;;;;;6581019;21;20231;-85
2024/05/03 05:32:08;;;;;;;1.40;0.70;;;12.50;99.90;;;;;;6580942;21;20239;-85
2024/05/03 05:34:37;;;;;;;1.23;0.73;;;12.30;99.90;;;;;;6583391;21;20253;-85
2024/05/03 05:37:06;;;;;;;1.40;0.70;;;12.30;99.90;;;;;;6583648;21;20215;-85
2024/05/03 05:39:34;;;;;;;0.97;0.67;;;12.30;99.90;;;;;;6581043;21;20249;-85
2024/05/03 05:42:03;;;;;;;0.70;0.70;;;12.20;99.90;;;;;;6580729;21;20331;-85
2024/05/03 05:44:34;;;;;;;0.70;0.70;;;12.30;99.90;;;;;;6583170;21;20219;-85
2024/05/03 05:47:03;;;;;;;1.63;0.70;;;12.40;99.90;;;;;;6582923;21;20214;-85
2024/05/03 05:49:31;;;;;;;0.60;0.60;;;12.70;99.90;;;;;;6580822;21;20230;-85
2024/05/03 05:52:00;;;;;;;0.60;0.60;;;12.50;99.90;;;;;;6580908;21;20227;-85
2024/05/03 05:54:28;;;;;;;1.47;0.60;;;12.70;99.90;;;;;;6580549;21;20273;-85
2024/05/03 05:56:59;;;;;;;2.43;0.63;;;12.70;99.90;;;;;;6583213;21;20227;-85
2024/05/03 05:59:28;;;;;;;1.10;0.60;;;12.60;99.90;;;;;;6582506;21;20238;-85
2024/05/03 06:02:00;;;;;;;0.40;0.40;;;12.70;99.90;;;;;;6537205;21;20236;-85
2024/05/03 06:04:28;;;;;;;0.70;0.43;;;12.70;99.90;;;;;;6485473;22;20228;-85
2024/05/03 06:06:57;;;;;;;0.80;0.70;;;12.90;99.90;;;;;;6485678;22;20231;-85
2024/05/03 06:09:26;;;;;;;1.13;0.63;;;12.70;99.90;;;;;;6530184;22;20249;-85
2024/05/03 06:11:55;;;;;;;0.43;0.43;;;12.80;99.90;;;;;;6530350;22;20216;-85
2024/05/03 06:14:24;;;;;;;1.17;0.50;;;12.70;99.90;;;;;;6485474;22;20279;-85
2024/05/03 06:16:54;;;;;;;0.50;0.50;;;12.80;99.90;;;;;;6485490;22;20242;-85
2024/05/03 06:19:25;;;;;;;0.80;0.60;;;12.80;99.90;;;;;;6485007;22;20228;-84
2024/05/03 06:21:51;;;;;;;0.40;0.40;;;12.70;99.90;;;;;;6485374;22;20231;-85
2024/05/03 06:24:21;;;;;;;0.50;0.37;;;12.70;99.90;;;;;;6485528;22;20270;-85
2024/05/03 06:26:53;;;;;;;1.90;0.40;;;12.70;99.90;;;;;;6485445;22;20227;-85
2024/05/03 06:29:22;;;;;;;1.33;0.40;;;12.70;99.90;;;;;;6530577;22;20216;-85
2024/05/03 06:31:51;;;;;;;0.63;0.47;;;12.80;99.90;;;;;;6485315;22;20262;-85
2024/05/03 06:34:19;;;;;;;0.30;0.30;;;12.80;99.90;;;;;;6530160;22;20216;-85
2024/05/03 06:36:51;;;;;;;0.40;0.40;;;12.90;99.90;;;;;;6485343;22;20263;-85
2024/05/03 06:39:20;;;;;;;0.40;0.40;;;12.80;99.90;;;;;;6530313;22;20216;-85
2024/05/03 06:41:48;;;;;;;0.97;0.40;;;12.60;99.90;;;;;;6485195;22;20227;-85
2024/05/03 06:44:17;;;;;;;0.83;0.43;;;12.40;99.90;;;;;;6530144;22;20220;-85
2024/05/03 06:46:45;;;;;;;0.40;0.40;;;12.40;99.90;;;;;;6485099;22;20239;-85
2024/05/03 06:49:14;;;;;;;0.57;0.40;;;12.40;99.90;;;;;;6530199;22;20216;-85
2024/05/03 06:51:43;;;;;;;0.83;0.40;;;12.60;99.90;;;;;;6485357;22;20318;-85
2024/05/03 06:54:14;;;;;;;0.50;0.50;;;12.30;99.90;;;;;;6485101;22;20228;-86
2024/05/03 06:56:42;;;;;;;0.53;0.53;;;12.20;99.90;;;;;;6485597;22;20274;-85
2024/05/03 06:59:11;;;;;;;1.23;0.50;;;12.20;99.90;;;;;;6485330;22;20231;-85
2024/05/03 07:01:39;;;;;;;4.10;0.60;;;12.10;99.90;;;;;;6549777;21;20269;-86
2024/05/03 07:04:08;;;;;;;0.53;0.50;;;12.00;99.90;;;;;;6579856;21;20272;-85
2024/05/03 07:06:37;;;;;;;0.47;0.47;;;11.90;99.90;;;;;;6582067;21;20223;-85
2024/05/03 07:09:05;;;;;;;0.60;0.60;;;11.90;99.90;;;;;;6580658;21;20302;-86
2024/05/03 07:11:38;;;;;;;0.80;0.60;;;11.80;99.90;;;;;;6582149;21;20666;-85
2024/05/03 07:14:07;;;;;;;1.10;0.70;;;11.70;99.90;;;;;;6580248;21;20230;-85
2024/05/03 07:16:36;;;;;;;0.77;0.60;;;11.70;99.90;;;;;;6579969;21;20229;-85
2024/05/03 07:19:04;;;;;;;1.67;0.70;;;11.70;99.90;;;;;;6580047;21;20231;-85
2024/05/03 07:21:33;;;;;;;1.17;0.77;;;11.70;99.90;;;;;;6580099;21;20258;-85
2024/05/03 07:24:01;;;;;;;0.80;0.80;;;11.70;99.90;;;;;;6580292;21;20231;-85
2024/05/03 07:26:31;;;;;;;0.83;0.67;;;11.80;99.90;;;;;;6579795;21;20227;-85
2024/05/03 07:29:03;;;;;;;1.03;0.60;;;11.80;99.90;;;;;;6579983;21;20233;-86
2024/05/03 07:31:34;;;;;;;0.70;0.70;;;11.80;99.90;;;;;;6581829;21;20375;-86
2024/05/03 07:34:04;;;;;;;0.60;0.60;;;11.80;99.90;;;;;;6579806;21;20227;-85
2024/05/03 07:36:32;;;;;;;0.60;0.60;;;11.80;99.90;;;;;;6579999;21;20226;-85
2024/05/03 07:39:01;;;;;;;0.70;0.70;;;11.80;99.90;;;;;;6580214;21;20227;-86
2024/05/03 07:41:30;;;;;;;0.80;0.50;;;11.70;99.90;;;;;;6580062;21;20723;-85
2024/05/03 07:43:58;;;;;;;2.30;0.50;;;11.80;99.90;;;;;;6582376;21;20319;-86
2024/05/03 07:46:34;;;;;;;1.47;0.50;;;11.80;99.90;;;;;;6579860;21;20230;-85
2024/05/03 07:49:02;;;;;;;1.23;0.40;;;11.80;99.90;;;;;;6580008;21;20281;-86
2024/05/03 07:51:31;;;;;;;0.70;0.50;;;12.00;99.90;;;;;;6581716;21;20215;-86
2024/05/03 07:53:59;;;;;;;0.93;0.50;;;11.90;99.90;;;;;;6579756;21;20226;-86
2024/05/03 07:56:28;;;;;;;0.40;0.40;;;11.80;99.90;;;;;;6579499;21;20242;-86
2024/05/03 07:58:56;;;;;;;0.40;0.40;;;11.70;99.90;;;;;;6579874;21;20230;-86
2024/05/03 08:01:28;;;;;;;3.70;0.37;;;11.80;99.90;;;;;;6579142;21;20238;-85
2024/05/03 08:03:59;;;;;;;0.33;0.30;;;11.70;99.90;;;;;;6581747;21;20260;-86
2024/05/03 08:06:30;;;;;;;0.57;0.40;;;11.70;99.90;;;;;;6579372;21;20257;-85
2024/05/03 08:08:58;;;;;;;0.40;0.40;;;11.80;99.90;;;;;;6579628;21;20256;-85
2024/05/03 08:11:27;;;;;;;1.00;0.50;;;11.90;99.90;;;;;;6581905;21;20215;-85
2024/05/03 08:13:55;;;;;;;0.37;0.37;;;11.80;99.90;;;;;;6581933;21;20219;-85
2024/05/03 08:16:24;;;;;;;0.30;0.30;;;12.00;99.90;;;;;;6582122;21;20250;-85
2024/05/03 08:18:53;;;;;;;0.40;0.40;;;11.90;99.90;;;;;;6579842;21;20251;-84
2024/05/03 08:21:28;;;;;;;1.03;0.40;;;11.80;99.90;;;;;;6579647;21;20226;-85
2024/05/03 08:23:57;;;;;;;0.40;0.30;;;12.00;99.90;;;;;;6579422;21;20289;-85
2024/05/03 08:26:26;;;;;;;2.40;0.40;;;12.20;99.90;;;;;;6579969;21;20231;-85
2024/05/03 08:28:54;;;;;;;0.77;0.47;;;12.00;99.90;;;;;;6535809;21;20227;-85
2024/05/03 08:31:23;;;;;;;0.40;0.40;;;12.00;99.90;;;;;;6579561;21;20227;-86
2024/05/03 08:33:52;;;;;;;0.40;0.40;;;12.10;99.90;;;;;;6579366;21;20231;-86
2024/05/03 08:36:20;;;;;;;0.63;0.43;;;12.20;99.90;;;;;;6582079;21;20223;-85
2024/05/03 08:38:51;;;;;;;0.30;0.30;;;11.90;99.90;;;;;;6579492;21;20227;-86
2024/05/03 08:41:22;;;;;;;0.70;0.50;;;12.00;99.90;;;;;;6582051;21;20328;-86
2024/05/03 08:43:58;;;;;;;0.50;0.40;;;12.10;99.90;;;;;;6582466;21;20267;-85
2024/05/03 08:46:30;;;;;;;0.33;0.30;;;12.10;99.90;;;;;;6581422;21;20222;-86
2024/05/03 08:49:03;;;;;;;0.67;0.33;;;12.00;99.90;;;;;;6583649;21;20215;-86
2024/05/03 08:51:35;;;;;;;0.40;0.40;;;12.00;99.90;;;;;;6581696;21;20270;-85
2024/05/03 08:54:14;;;;;;;0.43;0.40;;;12.00;99.90;;;;;;6581359;21;20261;-85
2024/05/03 08:56:43;;;;;;;0.37;0.37;;;12.00;99.90;;;;;;6583353;21;20227;-84
2024/05/03 08:59:11;;;;;;;0.40;0.30;;;12.00;99.90;;;;;;6581640;21;20231;-85
2024/05/03 09:01:42;;;;;;;1.23;0.33;;;12.00;99.90;;;;;;6516125;21;20246;-86
2024/05/03 09:04:11;;;;;;;0.97;0.30;;;12.10;99.90;;;;;;6531180;22;20219;-87
2024/05/03 09:06:46;;;;;;;0.73;0.30;;;12.10;99.90;;;;;;6486562;22;20228;-86
2024/05/03 09:09:19;;;;;;;0.40;0.40;;;12.10;99.90;;;;;;6485888;22;20223;-86
2024/05/03 09:11:48;;;;;;;0.40;0.40;;;12.00;99.90;;;;;;6531046;22;20216;-86
2024/05/03 09:14:18;;;;;;;0.63;0.30;;;12.20;99.90;;;;;;6486439;22;20220;-86
2024/05/03 09:16:58;;;;;;;1.40;0.60;;;12.10;99.90;;;;;;6531496;22;20266;-85
2024/05/03 09:19:26;;;;;;;0.97;0.50;;;12.30;99.90;;;;;;6531629;22;20254;-87
2024/05/03 09:21:55;;;;;;;0.30;0.30;;;12.60;99.90;;;;;;6531066;22;20216;-86
2024/05/03 09:24:26;;;;;;;0.50;0.30;;;12.70;99.90;;;;;;6530939;22;20216;-86
2024/05/03 09:26:55;;;;;;;0.30;0.30;;;12.80;99.90;;;;;;6486325;22;20224;-86
2024/05/03 09:29:23;;;;;;;0.20;0.20;;;12.50;99.90;;;;;;6485466;22;20247;-86
2024/05/03 09:31:53;;;;;;;0.40;0.40;;;12.70;99.90;;;;;;6530959;22;20216;-86
2024/05/03 09:34:21;;;;;;;0.30;0.30;;;12.40;99.90;;;;;;6486080;22;20228;-87
2024/05/03 09:36:53;;;;;;;0.40;0.40;;;12.20;99.90;;;;;;6531108;22;20224;-87
2024/05/03 09:39:22;;;;;;;0.40;0.40;;;12.10;99.90;;;;;;6443614;22;20262;-86
2024/05/03 09:41:53;;;;;;;0.93;0.30;;;12.20;99.90;;;;;;6530936;22;20220;-87
2024/05/03 09:44:23;;;;;;;0.30;0.30;;;12.30;99.90;;;;;;6530927;22;20304;-86
2024/05/03 09:46:52;;;;;;;0.27;0.27;;;12.30;99.90;;;;;;6530816;22;20216;-86
2024/05/03 09:49:31;;;;;;;0.47;0.30;;;12.30;99.90;;;;;;6485875;22;20325;-87
2024/05/03 09:52:05;;;;;;;1.70;0.30;;;12.10;99.90;;;;;;6531718;22;20223;-86
2024/05/03 09:54:45;;;;;;;0.30;0.30;;;12.30;99.90;;;;;;6485411;22;20230;-86
2024/05/03 09:57:31;;;;;;;0.30;0.30;;;12.10;99.90;;;;;;6485713;22;20240;-86
2024/05/03 10:00:05;;;;;;;0.30;0.30;;;12.10;99.90;;;;;;6485574;21;20281;-84
2024/05/03 10:02:36;;;;;;;0.30;0.30;;;12.00;99.90;;;;;;6530180;22;20322;-89
2024/05/03 10:05:06;;;;;;;0.40;0.40;;;12.10;99.90;;;;;;6530161;22;20270;-87
2024/05/03 10:07:36;;;;;;;0.50;0.50;;;12.20;99.90;;;;;;6485196;22;20257;-89
2024/05/03 10:10:05;;;;;;;1.23;0.40;;;12.10;99.90;;;;;;6485469;22;20228;-88
2024/05/03 10:12:39;;;;;;;0.40;0.40;;;12.20;99.90;;;;;;6485191;22;20232;-87
2024/05/03 10:15:09;;;;;;;1.37;0.60;;;11.90;99.90;;;;;;6485121;22;20274;-86
2024/05/03 10:17:38;;;;;;;0.87;0.53;;;12.00;99.90;;;;;;6485278;22;20232;-84
2024/05/03 10:20:07;;;;;;;0.60;0.50;;;12.30;99.90;;;;;;6485526;22;20231;-85
2024/05/03 10:22:35;;;;;;;1.07;0.50;;;12.30;99.90;;;;;;6530124;22;20247;-87
2024/05/03 10:25:04;;;;;;;0.47;0.40;;;12.20;99.90;;;;;;6485208;22;20224;-85
2024/05/03 10:27:41;;;;;;;0.40;0.40;;;12.10;99.90;;;;;;6530505;22;20216;-82
2024/05/03 10:30:18;;;;;;;0.40;0.40;;;12.10;99.90;;;;;;6529953;22;20216;-85
2024/05/03 10:32:47;;;;;;;0.40;0.40;;;12.00;99.90;;;;;;6485042;22;20227;-87
2024/05/03 10:35:23;;;;;;;0.50;0.50;;;12.00;99.90;;;;;;6530628;22;20321;-84
2024/05/03 10:37:57;;;;;;;0.50;0.40;;;12.10;99.90;;;;;;6530346;22;20215;-86
2024/05/03 10:40:29;;;;;;;0.40;0.40;;;12.10;99.90;;;;;;6530357;22;20224;-83
2024/05/03 10:43:01;;;;;;;0.50;0.40;;;12.00;99.90;;;;;;6484232;22;20235;-83
2024/05/03 10:45:30;;;;;;;0.87;0.43;;;12.00;99.90;;;;;;6530230;22;20216;-83
2024/05/03 10:48:00;;;;;;;1.23;0.50;;;12.10;99.90;;;;;;6530437;22;20215;-82
2024/05/03 10:50:28;;;;;;;0.80;0.60;;;12.10;99.90;;;;;;6485134;22;20240;-82
2024/05/03 10:52:58;;;;;;;0.40;0.40;;;12.20;99.90;;;;;;6529983;22;20266;-83
2024/05/03 10:55:27;;;;;;;0.53;0.43;;;12.40;99.90;;;;;;6484798;22;20240;-81
2024/05/03 10:57:57;;;;;;;0.50;0.50;;;12.50;99.90;;;;;;6529633;22;20216;-82
2024/05/03 11:00:28;;;;;;;0.60;0.40;;;12.60;99.90;;;;;;6496086;21;20235;-83
2024/05/03 11:02:57;;;;;;;1.20;0.50;;;12.40;99.90;;;;;;6581377;21;20253;-84
2024/05/03 11:05:26;;;;;;;0.40;0.40;;;12.60;99.90;;;;;;6579736;21;20227;-84
2024/05/03 11:07:55;;;;;;;2.87;0.40;;;12.40;99.90;;;;;;6579860;21;20231;-84
2024/05/03 11:10:24;;;;;;;0.30;0.30;;;12.30;99.90;;;;;;6581766;21;20265;-83
2024/05/03 11:12:53;;;;;;;0.77;0.50;;;12.30;99.90;;;;;;6580013;21;20307;-84
2024/05/03 11:15:22;;;;;;;0.50;0.50;;;12.20;99.90;;;;;;6579841;21;20274;-84
2024/05/03 11:17:53;;;;;;;1.00;0.43;;;12.20;99.90;;;;;;6582226;21;20263;-84
2024/05/03 11:20:22;;;;;;;0.47;0.47;;;12.50;99.90;;;;;;6581701;21;20219;-84
2024/05/03 11:22:50;;;;;;;0.40;0.40;;;12.30;99.90;;;;;;6581860;21;20219;-84
2024/05/03 11:25:19;;;;;;;1.40;0.40;;;12.20;99.90;;;;;;6581967;21;20270;-84
2024/05/03 11:27:48;;;;;;;0.50;0.50;;;12.30;99.90;;;;;;6582103;21;20215;-84
2024/05/03 11:30:19;;;;;;;1.23;0.40;;;12.30;99.90;;;;;;6581881;21;20254;-84
2024/05/03 11:32:48;;;;;;;0.47;0.47;;;12.30;99.90;;;;;;6581895;21;20254;-85
2024/05/03 11:35:24;;;;;;;0.30;0.30;;;12.40;99.90;;;;;;6581761;21;20253;-85
2024/05/03 11:37:55;;;;;;;0.47;0.40;;;12.30;99.90;;;;;;6581951;21;20253;-84
2024/05/03 11:40:25;;;;;;;1.67;0.47;;;12.30;99.90;;;;;;6581406;21;20287;-84
2024/05/03 11:42:54;;;;;;;1.73;0.50;;;12.40;99.90;;;;;;6579500;21;20219;-85
2024/05/03 11:45:22;;;;;;;0.50;0.50;;;12.50;99.90;;;;;;6581752;21;20267;-84
2024/05/03 11:47:51;;;;;;;1.53;0.90;;;12.70;99.90;;;;;;6581468;21;20269;-84
2024/05/03 11:50:19;;;;;;;0.60;0.60;;;13.00;99.90;;;;;;6581619;21;20229;-85
2024/05/03 11:52:51;;;;;;;3.03;0.70;;;12.90;99.90;;;;;;6579622;21;20230;-85
2024/05/03 11:55:20;;;;;;;0.87;0.40;;;13.00;99.90;;;;;;6581971;21;20231;-84
2024/05/03 11:57:48;;;;;;;3.90;1.00;;;13.20;99.90;;;;;;6581468;21;20211;-84
2024/05/03 12:00:17;;;;;;;0.30;0.30;;;13.00;99.90;;;;;;6574761;21;20214;-84
2024/05/03 12:02:46;;;;;;;0.57;0.50;;;12.90;99.90;;;;;;6484595;22;20271;-85
2024/05/03 12:05:15;;;;;;;0.40;0.40;;;12.60;99.90;;;;;;6484445;22;20227;-85
2024/05/03 12:07:43;;;;;;;0.60;0.40;;;12.80;99.90;;;;;;6529790;22;20216;-85
2024/05/03 12:10:14;;;;;;;1.13;0.43;;;12.90;99.90;;;;;;6529501;22;20266;-85
2024/05/03 12:12:43;;;;;;;0.40;0.40;;;12.90;99.90;;;;;;6529741;22;20216;-85
2024/05/03 12:15:11;;;;;;;0.60;0.50;;;12.90;99.90;;;;;;6484459;22;20232;-84
2024/05/03 12:17:40;;;;;;;0.87;0.50;;;12.90;99.90;;;;;;6529362;22;20266;-84
2024/05/03 12:20:09;;;;;;;0.40;0.40;;;12.90;99.90;;;;;;6532058;22;20225;-85
2024/05/03 12:22:38;;;;;;;0.50;0.50;;;12.80;99.90;;;;;;6486630;22;20231;-85
2024/05/03 12:25:07;;;;;;;0.50;0.50;;;12.70;99.90;;;;;;6531721;22;20216;-84
2024/05/03 12:27:38;;;;;;;0.50;0.50;;;12.70;99.90;;;;;;6531578;22;20219;-86
2024/05/03 12:30:07;;;;;;;0.50;0.50;;;12.90;99.90;;;;;;6529531;22;20247;-85
2024/05/03 12:32:35;;;;;;;0.50;0.50;;;13.20;99.90;;;;;;6486256;22;20280;-86
2024/05/03 12:35:04;;;;;;;0.40;0.40;;;12.90;99.90;;;;;;6531377;22;20253;-85
2024/05/03 12:37:33;;;;;;;0.67;0.67;;;13.00;99.90;;;;;;6531602;22;20216;-86
2024/05/03 12:40:01;;;;;;;0.50;0.50;;;12.90;99.90;;;;;;6531525;22;20220;-85
2024/05/03 12:42:30;;;;;;;0.60;0.60;;;12.90;99.90;;;;;;6486637;22;20228;-85
2024/05/03 12:45:03;;;;;;;0.50;0.50;;;12.60;99.90;;;;;;6486221;22;20254;-84
2024/05/03 12:47:31;;;;;;;0.97;0.70;;;12.50;99.90;;;;;;6531581;22;20224;-84
2024/05/03 12:50:00;;;;;;;0.50;0.50;;;12.30;99.90;;;;;;6486705;22;20286;-83
2024/05/03 12:52:29;;;;;;;0.50;0.50;;;12.30;99.90;;;;;;6531099;22;20219;-83
2024/05/03 12:55:00;;;;;;;1.73;0.70;;;12.30;99.90;;;;;;6531189;22;20254;-84